Nearby METAR Reports

 

KCXP - Carson City, Nevada, USA
Distance from station: WSW 2mi, 3km
Updated: Sat, Feb-11-2017 9:15am PST
NOT Current
Clear
Clear
 Wind from calm
Wind: Calm
Temperature: 37°F , 3°C
Dew Point: 28°F , -2°C
Humidity: 70%
Barometer: 30.22 inHg , 1023.4 hPa
Clouds: Clear
Visibility: 10 miles , 16 km
2017/02/11 17:15 KCXP 111715Z AUTO 00000KT 10SM CLR 03/M02 A3022 RMK AO2
KRNO - Reno, Nevada, USA
Distance from station: N 21mi, 34km
Updated: Sun, Feb-19-2017 7:55am PST
Few Clouds
Few Clouds
 Wind from WSW
Wind: WSW 3 mph , 6 km/h
Temperature: 41°F , 5°C
Dew Point: 25°F , -4°C
Humidity: 53%
Barometer: 29.72 inHg , 1006.4 hPa
Clouds: Few Clouds
Visibility: 10 miles , 16 km
Cloud details: Few Clouds 4500 ft
Few Clouds 6500 ft
Few Clouds 14000 ft
2017/02/19 15:55 KRNO 191555Z 24003KT 10SM FEW045 FEW065 FEW140 05/M04 A2972 RMK AO2 SLP049 ACSL N AND S MTN TOPS OBSCD SW T00501044
 
KTRK - Truckee Tahoe, California, USA
Distance from station: WNW 24mi, 38km
Updated: Sun, Feb-19-2017 7:45am PST
Partly cloudy
Partly cloudy
 Wind from SSW
Wind: SSW 18 mph , 30 km/h, Gust: 23 mph , 37 km/h
Temperature: 32°F , 0°C
Wind Chill: 21°F , -6°C
Dew Point: 23°F , -5°C
Humidity: 69%
Barometer: 29.75 inHg , 1007.5 hPa
Clouds: Partly cloudy
Visibility: 10 miles , 16 km
Cloud details: Partly cloudy 3700 ft
Partly cloudy 5000 ft
2017/02/19 15:45 KTRK 191545Z 21016G20KT 10SM SCT037 SCT050 00/M05 A2975 RMK NOSPECI
KTVL - South Lake Tahoe, California, USA
Distance from station: SW 26mi, 42km
Updated: Sun, Feb-19-2017 8:04am PST
Overcast
Overcast
 Wind from SE
Wind: SE 8 mph , 13 km/h
Temperature: 34°F , 1°C
Wind Chill: 27°F , -3°C
Dew Point: 27°F , -3°C
Humidity: 75%
Barometer: 29.75 inHg , 1007.5 hPa
Clouds: Overcast
Visibility: 10 miles , 16 km
Cloud details: Partly cloudy 2500 ft
Overcast 3900 ft
2017/02/19 16:04 KTVL 191604Z AUTO 14007KT 10SM SCT025 OVC039 01/M03 A2975 RMK AO2 T00061033
 
KRTS - Reno/Stead, Nevada, USA
Distance from station: NNW 34mi, 54km
Updated: Sun, Feb-19-2017 8:15am PST
Few Clouds
Few Clouds
 Wind from W
Wind: W 10 mph , 17 km/h, Gust: 17 mph , 28 km/h
Temperature: 37°F , 3°C
Wind Chill: 30°F , -1°C
Dew Point: 23°F , -5°C
Humidity: 56%
Barometer: 29.72 inHg , 1006.4 hPa
Clouds: Few Clouds
Visibility: 10 miles , 16 km
Cloud details: Few Clouds 4300 ft
2017/02/19 16:15 KRTS 191615Z AUTO 26009G15KT 10SM FEW043 03/M05 A2972 RMK AO2
KBLU - Emigrant Gap, California, USA
Distance from station: W 54mi, 87km
Updated: Sun, Feb-19-2017 7:52am PST
Overcast
Overcast
 Wind from SE
Wind: SE 9 mph , 15 km/h
Temperature: 32°F , 0°C
Wind Chill: 24°F , -4°C
Dew Point: 25°F , -4°C
Humidity: 75%
Barometer: 29.77 inHg , 1008.1 hPa
Clouds: Overcast
Visibility: 10 miles , 16 km
Cloud details: Few Clouds 2800 ft
Partly cloudy 4200 ft
Overcast 6000 ft
2017/02/19 15:52 KBLU 191552Z AUTO 13008KT 080V160 10SM FEW028 SCT042 OVC060 00/M04 A2977 RMK AO2 SLP082 T00001044 TSNO
 
KNFL - Fallon Nas, Nevada, USA
Distance from station: ENE 56mi, 89km
Updated: Sun, Feb-19-2017 7:56am PST
Clear
Clear
 Wind from S
Wind: S 9 mph , 15 km/h
Temperature: 45°F , 7°C
Wind Chill: 40°F , 4°C
Dew Point: 25°F , -4°C
Humidity: 46%
Barometer: 29.71 inHg , 1006.1 hPa
Clouds: Clear
Visibility: 10 miles , 16 km
2017/02/19 15:56 KNFL 191556Z AUTO 18008KT 10SM CLR 07/M04 A2971 RMK AO2 SLP041 T00671039
KBAN - Bridgeport(Mcmwt, California, USA
Distance from station: S 60mi, 96km
Updated: Sun, Feb-19-2017 7:52am PST

 Wind from WSW
Wind: WSW 12 mph , 19 km/h, Gust: 21 mph , 33 km/h
Temperature: 37°F , 3°C
Wind Chill: 29°F , -2°C
Dew Point: 25°F , -4°C
Humidity: 60%
Barometer: 29.73 inHg , 1006.8 hPa
Visibility: 10 miles , 16 km
2017/02/19 15:52 KBAN 191552Z AUTO 24010G18KT 10SM 03/M04 A2973 RMK AO2 SNE31 SLP052 P0000 T00281039 $
 
KPVF - Placerville, California, USA
Distance from station: WSW 66mi, 105km
Updated: Sun, Feb-19-2017 8:15am PST
Mostly cloudy
Mostly cloudy
 Wind from S
Wind: S 3 mph , 6 km/h
Temperature: 39°F , 4°C
Dew Point: 37°F , 3°C
Humidity: 93%
Barometer: 29.83 inHg , 1010.2 hPa
Clouds: Mostly cloudy
Visibility: 10 miles , 16 km
Cloud details: Few Clouds 4400 ft
Mostly cloudy 7500 ft
Mostly cloudy 9000 ft
2017/02/19 16:15 KPVF 191615Z AUTO 19003KT 10SM FEW044 BKN075 BKN090 04/03 A2983 RMK AO1
KGOO - Grass Valley, California, USA
Distance from station: W 70mi, 112km
Updated: Sun, Feb-19-2017 8:15am PST
Overcast
Overcast
 Wind from SE
Wind: SE 3 mph , 6 km/h
Temperature: 37°F , 3°C
Dew Point: 36°F , 2°C
Humidity: 93%
Barometer: 29.80 inHg , 1009.1 hPa
Clouds: Overcast
Visibility: 10 miles , 16 km
Cloud details: Few Clouds 3300 ft
Overcast 5000 ft
2017/02/19 16:15 KGOO 191615Z AUTO 13003KT 10SM FEW033 OVC050 03/02 A2980 RMK AO1
 
KAUN - Auburn Muni, California, USA
Distance from station: WSW 76mi, 123km
Updated: Sun, Feb-19-2017 8:15am PST
Mostly cloudy
Mostly cloudy
 Wind from SSE
Wind: SSE 7 mph , 11 km/h
Temperature: 45°F , 7°C
Wind Chill: 41°F , 5°C
Dew Point: 39°F , 4°C
Humidity: 81%
Barometer: 29.84 inHg , 1010.5 hPa
Clouds: Mostly cloudy
Visibility: 10 miles , 16 km
Cloud details: Mostly cloudy 7500 ft
2017/02/19 16:15 KAUN 191615Z AUTO 15006KT 10SM BKN075 07/04 A2984 RMK AO1
KLOL - Lovelock, Nevada, USA
Distance from station: NE 85mi, 137km
Updated: Sun, Feb-19-2017 7:53am PST
Clear
Clear
 Wind from SSW
Wind: SSW 9 mph , 15 km/h
Temperature: 39°F , 4°C
Wind Chill: 33°F , 1°C
Dew Point: 28°F , -2°C
Humidity: 65%
Barometer: 29.70 inHg , 1005.8 hPa
Clouds: Clear
Visibility: 10 miles , 16 km
2017/02/19 15:53 KLOL 191553Z AUTO 20008KT 10SM CLR 04/M02 A2970 RMK AO2 SLP057 T00391022
 
KLHM - Lincoln, California, USA
Distance from station: WSW 91mi, 146km
Updated: Sun, Feb-19-2017 8:15am PST
Overcast
Overcast
 Wind from SE
Wind: SE 8 mph , 13 km/h
Temperature: 46°F , 8°C
Wind Chill: 42°F , 6°C
Dew Point: 43°F , 6°C
Humidity: 87%
Barometer: 29.84 inHg , 1010.5 hPa
Clouds: Overcast
Visibility: 10 miles , 16 km
Cloud details: Mostly cloudy 8500 ft
Overcast 9000 ft
2017/02/19 16:15 KLHM 191615Z AUTO 14007KT 10SM BKN085 OVC090 08/06 A2984 RMK AO1
KBAB - Beale Afb/Marysv, California, USA
Distance from station: W 92mi, 148km
Updated: Sun, Feb-19-2017 8:18am PST
Overcast
Overcast
 Wind from ESE
Wind: ESE 14 mph , 22 km/h
Temperature: 48°F , 9°C
Wind Chill: 42°F , 6°C
Dew Point: 45°F , 7°C
Humidity: 87%
Barometer: 29.82 inHg , 1009.8 hPa
Clouds: Overcast
Visibility: 10 miles , 16 km
Cloud details: Mostly cloudy 2200 ft
Overcast 2900 ft
2017/02/19 16:18 KBAB 191618Z AUTO 12012KT 10SM BKN022 OVC029 09/07 A2982 RMK AO2 CIG 021V030 BKN V FEW $
 
KMHR - Mather Field, California, USA
Distance from station: WSW 97mi, 156km
Updated: Sun, Feb-19-2017 7:45am PST
Overcast
Overcast
 Wind from SSE
Wind: SSE 6 mph , 9 km/h
Temperature: 46°F , 8°C
Wind Chill: 43°F , 6°C
Dew Point: 45°F , 7°C
Humidity: 93%
Barometer: 29.84 inHg , 1010.5 hPa
Clouds: Overcast
Visibility: 10 miles , 16 km
Cloud details: Mostly cloudy 6000 ft
Mostly cloudy 7000 ft
Overcast 8000 ft
2017/02/19 15:45 KMHR 191545Z 16005KT 10SM BKN060 BKN070 OVC080 08/07 A2984
KMCC - Mcclellan Afb, California, USA
Distance from station: WSW 99mi, 159km
Updated: Sun, Feb-19-2017 8:15am PST
Clear
Clear
 Wind from SSE
Wind: SSE 13 mph , 20 km/h
Temperature: 48°F , 9°C
Wind Chill: 43°F , 6°C
Dew Point: 45°F , 7°C
Humidity: 87%
Barometer: 29.86 inHg , 1011.2 hPa
Clouds: Clear
Visibility: 9 miles , 14 km
2017/02/19 16:15 KMCC 191615Z AUTO 15011KT 9SM CLR 09/07 A2986 RMK AO2
 
KMYV - Marysville, California, USA
Distance from station: W 100mi, 161km
Updated: Sun, Feb-19-2017 8:03am PST
Overcast
Overcast
 Wind from SSE
Wind: SSE 12 mph , 19 km/h
Temperature: 48°F , 9°C
Wind Chill: 43°F , 6°C
Dew Point: 45°F , 7°C
Humidity: 87%
Barometer: 29.84 inHg , 1010.5 hPa
Clouds: Overcast
Visibility: 10 miles , 16 km
Cloud details: Partly cloudy 2800 ft
Mostly cloudy 3900 ft
Overcast 7500 ft
2017/02/19 16:03 KMYV 191603Z AUTO 16010KT 10SM SCT028 BKN039 OVC075 09/07 A2984 RMK AO2 T00890072